Time;durP1;ratioP1;P1;durP2;ratioP2;P2;SDS_P1;SDS_P2;PMS_P1;PMS_P2;Temp;Humidity;BMP_temperature;BMP_pressure;BME280_temperature;BME280_humidity;BME280_pressure;Samples;Min_cycle;Max_cycle;Signal;HPM_P1;HPM_P2
2022/02/01 00:02:13;;;;;;;15.98;3.22;;;4.80;99.90;;;;;;5083097;28;20051;-84
2022/02/01 00:04:51;;;;;;;18.35;2.47;;;4.80;99.90;;;;;;5077250;28;20047;-83
2022/02/01 00:10:07;;;;;;;20.90;2.38;;;4.80;99.90;;;;;;5078473;28;20052;-84
2022/02/01 00:13:05;;;;;;;;;;;4.70;99.90;;;;;;5048409;28;20028;-84
2022/02/01 00:35:16;;;;;;;22.85;3.13;;;4.60;99.90;;;;;;5012737;28;20030;-83
2022/02/01 00:37:55;;;;;;;15.63;2.83;;;4.60;99.90;;;;;;4984023;28;20040;-83
2022/02/01 00:40:21;;;;;;;19.00;2.30;;;4.60;99.90;;;;;;5032807;28;20089;-84
2022/02/01 00:42:47;;;;;;;16.10;2.78;;;4.50;99.90;;;;;;5059577;28;20395;-84
2022/02/01 00:45:12;;;;;;;16.30;2.85;;;4.50;99.90;;;;;;5059428;28;20039;-83
2022/02/01 00:47:38;;;;;;;14.10;3.03;;;4.50;99.90;;;;;;5059839;28;20122;-84
2022/02/01 00:50:04;;;;;;;15.30;3.00;;;4.50;99.90;;;;;;5075412;28;20389;-84
2022/02/01 00:52:30;;;;;;;17.50;2.60;;;4.50;99.90;;;;;;5058911;28;20387;-84
2022/02/01 00:54:56;;;;;;;16.70;3.53;;;4.50;99.90;;;;;;5059952;28;20469;-85
2022/02/01 00:57:22;;;;;;;14.23;2.05;;;4.40;99.90;;;;;;5059589;28;20056;-84
2022/02/01 00:59:47;;;;;;;16.90;2.45;;;4.50;99.90;;;;;;5059406;28;20035;-84
2022/02/01 01:02:13;;;;;;;12.55;2.25;;;4.50;99.90;;;;;;5075779;28;20036;-83
2022/02/01 01:04:39;;;;;;;14.75;2.13;;;4.50;99.90;;;;;;5059324;28;20039;-83
2022/02/01 01:07:04;;;;;;;19.35;2.47;;;4.40;99.90;;;;;;5075816;28;20472;-84
2022/02/01 01:09:30;;;;;;;14.90;2.67;;;4.40;99.90;;;;;;5076239;28;20036;-83
2022/02/01 01:11:57;;;;;;;14.55;3.65;;;4.40;99.90;;;;;;5076179;28;20464;-84
2022/02/01 01:43:33;;;;;;;17.48;2.40;;;4.30;99.90;;;;;;5078467;28;20043;-83
2022/02/01 01:44:29;;;;;;;18.63;2.28;;;4.30;99.90;;;;;;5085400;28;20054;-84
2022/02/01 01:55:15;;;;;;;14.75;2.13;;;4.30;99.90;;;;;;5077929;28;20047;-84
2022/02/01 01:57:41;;;;;;;11.90;2.50;;;4.30;99.90;;;;;;5075473;28;20047;-84
2022/02/01 02:00:18;;;;;;;16.42;2.28;;;4.30;99.90;;;;;;5074776;28;20032;-84
2022/02/01 02:02:43;;;;;;;15.57;2.00;;;4.30;99.90;;;;;;5076841;28;20413;-84
2022/02/01 02:05:09;;;;;;;19.02;2.83;;;4.40;99.90;;;;;;5062528;28;20020;-84
2022/02/01 02:07:35;;;;;;;17.52;2.65;;;4.40;99.90;;;;;;5062681;28;20460;-84
2022/02/01 02:10:02;;;;;;;14.20;2.30;;;4.40;99.90;;;;;;5079643;28;20032;-84
2022/02/01 02:12:50;;;;;;;12.13;1.95;;;4.40;99.90;;;;;;5079185;28;20039;-84
2022/02/01 02:15:32;;;;;;;14.93;1.75;;;4.40;99.90;;;;;;5081328;28;20044;-84
2022/02/01 02:18:02;;;;;;;16.27;2.38;;;4.40;99.90;;;;;;5079204;28;20472;-84
2022/02/01 02:20:39;;;;;;;12.40;1.90;;;4.40;99.90;;;;;;5078894;28;20040;-84
2022/02/01 02:23:05;;;;;;;13.70;3.05;;;4.40;99.90;;;;;;5097231;28;20077;-86
2022/02/01 02:25:35;;;;;;;11.35;1.90;;;4.40;99.90;;;;;;5062384;28;20103;-84
2022/02/01 02:28:01;;;;;;;16.25;2.80;;;4.40;99.90;;;;;;5095991;28;20070;-83
2022/02/01 02:30:27;;;;;;;18.73;2.42;;;4.40;99.90;;;;;;5074855;28;20115;-83
2022/02/01 02:32:52;;;;;;;27.95;5.05;;;4.40;99.90;;;;;;5058876;28;20045;-84
2022/02/01 02:35:19;;;;;;;13.82;1.98;;;4.40;99.90;;;;;;5075417;28;20354;-83
2022/02/01 02:37:44;;;;;;;16.08;1.98;;;4.40;99.90;;;;;;5074427;28;20033;-83
2022/02/01 02:40:33;;;;;;;10.70;1.77;;;4.40;99.90;;;;;;5042077;28;20086;-84
2022/02/01 02:45:42;;;;;;;13.88;1.95;;;4.40;99.90;;;;;;5061443;28;20075;-84
2022/02/01 02:48:12;;;;;;;19.58;2.00;;;4.50;99.90;;;;;;5058572;28;20461;-87
2022/02/01 02:50:38;;;;;;;18.42;2.20;;;4.40;99.90;;;;;;5075614;28;20043;-85
2022/02/01 02:53:03;;;;;;;16.63;2.33;;;4.40;99.90;;;;;;5058631;28;20024;-84
2022/02/01 02:55:31;;;;;;;15.00;2.28;;;4.50;99.90;;;;;;5074771;28;20021;-84
2022/02/01 02:57:57;;;;;;;11.98;1.70;;;4.50;99.90;;;;;;5058699;28;20028;-83
2022/02/01 03:00:23;;;;;;;9.02;1.63;;;4.50;99.90;;;;;;5058220;28;20381;-84
2022/02/01 03:02:48;;;;;;;8.93;1.63;;;4.50;99.90;;;;;;5074451;28;20020;-84
2022/02/01 03:05:14;;;;;;;14.93;2.20;;;4.50;99.90;;;;;;5058444;28;20436;-84
2022/02/01 03:07:40;;;;;;;11.35;1.63;;;4.50;99.90;;;;;;5058275;28;20055;-84
2022/02/01 03:10:06;;;;;;;13.18;1.83;;;4.50;99.90;;;;;;5057973;28;20354;-84
2022/02/01 03:12:55;;;;;;;15.35;2.20;;;4.50;99.90;;;;;;5058053;28;20365;-84
2022/02/01 03:15:58;;;;;;;9.73;2.05;;;4.40;99.90;;;;;;5060633;28;20037;-84
2022/02/01 03:20:53;;;;;;;9.98;1.50;;;4.50;99.90;;;;;;5074798;28;20106;-84
2022/02/01 03:23:19;;;;;;;13.82;1.88;;;4.50;99.90;;;;;;5057792;28;20389;-84
2022/02/01 03:25:44;;;;;;;15.00;2.22;;;4.50;99.90;;;;;;5057881;28;20047;-84
2022/02/01 03:28:10;;;;;;;12.82;1.48;;;4.50;99.90;;;;;;5074560;28;20025;-83
2022/02/01 03:30:36;;;;;;;13.27;2.20;;;4.50;99.90;;;;;;5039962;28;20052;-83
2022/02/01 03:33:01;;;;;;;18.23;3.15;;;4.60;99.90;;;;;;5057524;28;20358;-84
2022/02/01 03:35:27;;;;;;;17.85;1.98;;;4.50;99.90;;;;;;5057324;28;20035;-84
2022/02/01 03:37:52;;;;;;;16.17;1.77;;;4.50;99.90;;;;;;5057637;28;20162;-83
2022/02/01 03:40:20;;;;;;;15.18;2.50;;;4.60;99.90;;;;;;5073572;28;20028;-84
2022/02/01 03:42:46;;;;;;;14.02;2.22;;;4.50;99.90;;;;;;5074402;28;20040;-84
2022/02/01 03:45:12;;;;;;;15.18;2.03;;;4.60;99.90;;;;;;5074445;28;20028;-84
2022/02/01 03:47:37;;;;;;;14.10;2.30;;;4.60;99.90;;;;;;5073139;28;20024;-83
2022/02/01 03:50:08;;;;;;;15.77;2.85;;;4.60;99.90;;;;;;5057274;28;20032;-84
2022/02/01 03:52:34;;;;;;;23.02;2.88;;;4.60;99.90;;;;;;5075080;28;20036;-84
2022/02/01 03:55:00;;;;;;;17.75;3.10;;;4.60;99.90;;;;;;5057030;28;20025;-84
2022/02/01 03:57:26;;;;;;;11.98;2.03;;;4.60;99.90;;;;;;5056977;28;20025;-84
2022/02/01 03:59:52;;;;;;;11.55;2.10;;;4.60;99.90;;;;;;5057380;28;20021;-83
2022/02/01 04:02:18;;;;;;;14.05;2.45;;;4.60;99.90;;;;;;5057199;28;20093;-85
2022/02/01 04:04:46;;;;;;;13.70;1.88;;;4.60;99.90;;;;;;5073768;28;20048;-84
2022/02/01 04:07:11;;;;;;;14.73;1.92;;;4.60;99.90;;;;;;5057488;28;20063;-84
2022/02/01 04:09:37;;;;;;;13.43;1.90;;;4.60;99.90;;;;;;5056819;28;20088;-83
2022/02/01 04:12:05;;;;;;;15.20;2.28;;;4.60;99.90;;;;;;5057156;28;20042;-84
2022/02/01 04:14:33;;;;;;;12.23;2.20;;;4.70;99.90;;;;;;5073419;28;20021;-84
2022/02/01 04:17:02;;;;;;;11.93;2.00;;;4.70;99.90;;;;;;5074259;28;20031;-84
2022/02/01 04:19:31;;;;;;;12.00;2.00;;;4.70;99.90;;;;;;5074420;28;20024;-84
2022/02/01 04:22:01;;;;;;;16.63;2.80;;;4.70;99.90;;;;;;5056854;28;20507;-83
2022/02/01 04:24:46;;;;;;;19.07;2.57;;;4.70;99.90;;;;;;5056151;28;20021;-84
2022/02/01 04:27:24;;;;;;;11.57;1.92;;;4.70;99.90;;;;;;5074464;28;20259;-84
2022/02/01 04:29:56;;;;;;;11.73;2.03;;;4.70;99.90;;;;;;5058178;28;20109;-83
2022/02/01 04:32:22;;;;;;;11.43;1.33;;;4.70;99.90;;;;;;5041598;28;20032;-84
2022/02/01 04:34:53;;;;;;;19.30;2.35;;;4.70;99.90;;;;;;5056552;28;20032;-83
2022/02/01 04:37:20;;;;;;;10.23;1.70;;;4.70;99.90;;;;;;5057403;28;20035;-83
2022/02/01 04:39:45;;;;;;;15.18;1.75;;;4.60;99.90;;;;;;5056244;28;20029;-84
2022/02/01 04:42:11;;;;;;;13.68;1.95;;;4.60;99.90;;;;;;5056755;28;20365;-83
2022/02/01 04:44:37;;;;;;;14.80;2.30;;;4.70;99.90;;;;;;5072602;28;20032;-84
2022/02/01 04:47:02;;;;;;;11.63;1.73;;;4.70;99.90;;;;;;5056284;28;20043;-85
2022/02/01 04:49:28;;;;;;;12.02;1.80;;;4.70;99.90;;;;;;5073603;28;20036;-84
2022/02/01 04:51:54;;;;;;;16.13;3.13;;;4.70;99.90;;;;;;5039561;28;20489;-83
2022/02/01 04:54:19;;;;;;;13.40;2.10;;;4.70;99.90;;;;;;5056253;28;20211;-84
2022/02/01 04:56:45;;;;;;;15.73;2.97;;;4.70;99.90;;;;;;5056273;28;20377;-84
2022/02/01 04:59:10;;;;;;;11.35;2.10;;;4.70;99.90;;;;;;5056256;28;20417;-83
2022/02/01 05:01:39;;;;;;;12.30;2.15;;;4.70;99.90;;;;;;5036747;28;20033;-85
2022/02/01 05:04:05;;;;;;;13.88;2.25;;;4.70;99.90;;;;;;5053966;28;20039;-81
2022/02/01 05:06:31;;;;;;;10.77;2.10;;;4.70;99.90;;;;;;5052603;28;20025;-82
2022/02/01 05:08:57;;;;;;;12.07;2.67;;;4.70;99.90;;;;;;5036091;28;20377;-83
2022/02/01 05:11:23;;;;;;;14.68;2.05;;;4.70;99.90;;;;;;5019642;28;20029;-83
2022/02/01 05:16:20;;;;;;;9.95;2.47;;;4.70;99.90;;;;;;5019580;28;20047;-82
2022/02/01 05:18:48;;;;;;;16.98;3.28;;;4.70;99.90;;;;;;5020210;28;20029;-82
2022/02/01 05:21:25;;;;;;;16.95;2.20;;;4.70;99.90;;;;;;5053492;28;20037;-83
2022/02/01 05:23:52;;;;;;;12.80;2.28;;;4.70;99.90;;;;;;5035798;28;20028;-83
2022/02/01 05:26:23;;;;;;;14.63;2.83;;;4.70;99.90;;;;;;5053923;28;20029;-82
2022/02/01 05:28:50;;;;;;;13.77;2.30;;;4.80;99.90;;;;;;5019169;28;20056;-82
2022/02/01 05:31:16;;;;;;;12.68;2.17;;;4.80;99.90;;;;;;5036087;28;20029;-82
2022/02/01 05:33:42;;;;;;;15.55;2.58;;;4.70;99.90;;;;;;5053425;28;20366;-82
2022/02/01 05:36:08;;;;;;;14.00;2.00;;;4.80;99.90;;;;;;5035707;28;20393;-83
2022/02/01 05:38:34;;;;;;;12.07;2.13;;;4.70;99.90;;;;;;5018757;28;20033;-83
2022/02/01 05:41:00;;;;;;;11.35;1.83;;;4.80;99.90;;;;;;5035314;28;20040;-84
2022/02/01 05:43:27;;;;;;;11.32;1.88;;;4.70;99.90;;;;;;5048903;28;20377;-83
2022/02/01 05:45:58;;;;;;;17.02;2.80;;;4.80;99.90;;;;;;5073409;28;20583;-83
2022/02/01 05:48:25;;;;;;;19.27;3.00;;;4.80;99.90;;;;;;5073558;28;20028;-84
2022/02/01 05:50:53;;;;;;;10.68;2.30;;;4.70;99.90;;;;;;5073105;28;20036;-83
2022/02/01 05:53:18;;;;;;;17.50;2.78;;;4.80;99.90;;;;;;5055344;28;20086;-82
2022/02/01 05:55:47;;;;;;;17.30;3.15;;;4.80;99.90;;;;;;5022418;28;20020;-84
2022/02/01 05:58:16;;;;;;;22.08;3.17;;;4.80;99.90;;;;;;5030935;28;20056;-83
2022/02/01 06:00:43;;;;;;;10.23;2.00;;;4.80;99.90;;;;;;5065326;28;20076;-83
2022/02/01 06:03:08;;;;;;;10.98;2.17;;;4.80;99.90;;;;;;5048791;28;20468;-83
2022/02/01 06:05:34;;;;;;;13.15;2.10;;;4.80;99.90;;;;;;5043973;28;20049;-84
2022/02/01 06:08:00;;;;;;;15.05;2.72;;;4.80;99.90;;;;;;5021076;28;20033;-83
2022/02/01 06:10:26;;;;;;;15.30;2.83;;;4.80;99.90;;;;;;5037004;28;20036;-83
2022/02/01 06:12:52;;;;;;;12.68;2.75;;;4.80;99.90;;;;;;5036182;28;20032;-83
2022/02/01 06:15:22;;;;;;;16.58;2.88;;;4.90;99.90;;;;;;5043640;28;20025;-84
2022/02/01 06:17:47;;;;;;;16.58;2.65;;;4.80;99.90;;;;;;5072558;28;20163;-84
2022/02/01 06:20:14;;;;;;;19.55;2.78;;;4.90;99.90;;;;;;5063606;28;20013;-83
2022/02/01 06:22:40;;;;;;;12.90;2.38;;;4.90;99.90;;;;;;5059730;28;20044;-85
2022/02/01 06:25:08;;;;;;;13.30;2.80;;;4.80;99.90;;;;;;5075127;28;20032;-83
2022/02/01 06:27:34;;;;;;;10.15;2.50;;;4.90;99.90;;;;;;5041112;28;20025;-83
2022/02/01 06:30:00;;;;;;;16.92;2.70;;;4.90;99.90;;;;;;5018516;28;20157;-83
2022/02/01 06:32:31;;;;;;;16.65;2.55;;;4.90;99.90;;;;;;5047831;28;20037;-83
2022/02/01 06:34:57;;;;;;;14.23;2.60;;;4.90;99.90;;;;;;5052437;28;20224;-83
2022/02/01 06:37:23;;;;;;;14.45;3.08;;;5.00;99.90;;;;;;5051113;28;20024;-83
2022/02/01 06:39:48;;;;;;;15.27;2.95;;;5.00;99.90;;;;;;5035363;28;20056;-83
2022/02/01 06:42:16;;;;;;;18.23;3.20;;;5.00;99.90;;;;;;5052799;28;20033;-83
2022/02/01 06:44:41;;;;;;;17.73;3.67;;;5.00;99.90;;;;;;5022170;28;20389;-85
2022/02/01 06:47:07;;;;;;;16.27;3.58;;;5.00;99.90;;;;;;5038158;28;20033;-83
2022/02/01 06:49:33;;;;;;;14.50;3.30;;;5.00;99.90;;;;;;5040665;28;20029;-84
2022/02/01 06:51:59;;;;;;;15.48;3.38;;;5.10;99.90;;;;;;5058626;28;20033;-83
2022/02/01 06:54:25;;;;;;;13.45;3.40;;;5.10;99.90;;;;;;5075987;28;20472;-83
2022/02/01 06:56:50;;;;;;;14.13;3.80;;;5.10;99.90;;;;;;5058126;28;20069;-82
2022/02/01 06:59:16;;;;;;;18.00;4.32;;;5.10;99.90;;;;;;5025146;28;20461;-83
2022/02/01 07:01:41;;;;;;;21.92;4.22;;;5.10;99.90;;;;;;5057977;28;20040;-86
2022/02/01 07:04:07;;;;;;;18.48;4.47;;;5.10;99.90;;;;;;5041075;28;20041;-83
2022/02/01 07:06:34;;;;;;;16.25;3.72;;;5.20;99.90;;;;;;5024671;28;20035;-83
2022/02/01 07:09:02;;;;;;;22.15;4.35;;;5.20;99.90;;;;;;5075725;28;20115;-83
2022/02/01 07:11:28;;;;;;;17.92;4.22;;;5.20;99.90;;;;;;5057694;28;20029;-83
2022/02/01 07:13:54;;;;;;;18.73;4.18;;;5.30;99.90;;;;;;5056317;28;20024;-83
2022/02/01 07:16:20;;;;;;;22.80;4.93;;;5.30;99.90;;;;;;5057916;28;20067;-82
2022/02/01 07:18:46;;;;;;;17.77;4.60;;;5.30;99.90;;;;;;5040847;28;20469;-83
2022/02/01 07:21:12;;;;;;;16.90;4.65;;;5.20;99.90;;;;;;5020853;28;20475;-83
2022/02/01 07:23:39;;;;;;;18.27;5.85;;;5.30;99.90;;;;;;5042577;28;20464;-83
2022/02/01 07:26:07;;;;;;;21.02;5.50;;;5.30;99.90;;;;;;5075122;28;20024;-83
2022/02/01 07:28:33;;;;;;;27.05;7.15;;;5.20;99.90;;;;;;5074297;28;20023;-84
2022/02/01 07:30:59;;;;;;;26.45;5.60;;;5.20;99.90;;;;;;5057503;28;20435;-83
2022/02/01 07:33:26;;;;;;;30.33;7.63;;;5.20;99.90;;;;;;5075846;28;20452;-82
2022/02/01 07:35:52;;;;;;;19.30;6.88;;;5.10;99.90;;;;;;5075467;28;20028;-82
2022/02/01 07:38:19;;;;;;;22.73;8.00;;;5.10;99.90;;;;;;5041040;28;20371;-82
2022/02/01 07:40:46;;;;;;;26.83;10.20;;;5.20;99.90;;;;;;5057900;28;20464;-83
2022/02/01 07:43:13;;;;;;;26.88;8.70;;;5.10;99.90;;;;;;5075551;28;20025;-82
2022/02/01 07:45:41;;;;;;;31.88;8.88;;;5.10;99.90;;;;;;5040889;28;20044;-82
2022/02/01 07:48:07;;;;;;;37.10;11.02;;;5.10;99.90;;;;;;5075063;28;20024;-81
2022/02/01 07:50:33;;;;;;;27.05;10.30;;;5.10;99.90;;;;;;5057190;28;20017;-83
2022/02/01 07:52:59;;;;;;;31.27;11.65;;;5.10;99.90;;;;;;5075090;28;20380;-82
2022/02/01 07:55:26;;;;;;;26.13;12.07;;;5.10;99.90;;;;;;5057133;28;20112;-82
2022/02/01 07:57:52;;;;;;;37.13;13.32;;;5.10;99.90;;;;;;5056933;28;20107;-83
2022/02/01 08:00:17;;;;;;;31.08;12.55;;;5.10;99.90;;;;;;5039570;28;20037;-82
2022/02/01 08:02:43;;;;;;;36.30;13.88;;;5.10;99.90;;;;;;5074923;28;20438;-82
2022/02/01 08:05:10;;;;;;;35.97;12.23;;;5.10;99.90;;;;;;5040408;28;20047;-82
2022/02/01 08:07:36;;;;;;;34.17;15.27;;;5.10;99.90;;;;;;5057071;28;20020;-81
2022/02/01 08:10:05;;;;;;;30.20;13.93;;;5.10;99.90;;;;;;5074536;28;20085;-82
2022/02/01 08:20:09;;;;;;;35.15;16.73;;;5.20;99.90;;;;;;5074584;28;20028;-81
2022/02/01 08:25:03;;;;;;;28.73;16.10;;;5.30;99.90;;;;;;5040056;28;20418;-81
2022/02/01 08:27:30;;;;;;;36.65;18.67;;;5.30;99.90;;;;;;5056707;28;20368;-81
2022/02/01 08:29:56;;;;;;;35.10;18.65;;;5.30;99.90;;;;;;5039462;28;20131;-83
2022/02/01 08:32:23;;;;;;;41.60;20.73;;;5.30;99.90;;;;;;5056337;28;20029;-81
2022/02/01 08:34:49;;;;;;;33.17;17.70;;;5.40;99.90;;;;;;5039908;28;20027;-87
2022/02/01 08:37:14;;;;;;;36.67;18.70;;;5.40;99.90;;;;;;5056397;28;20476;-81
2022/02/01 08:39:40;;;;;;;33.80;18.30;;;5.40;99.90;;;;;;5023335;28;20064;-82
2022/02/01 08:42:06;;;;;;;42.72;20.58;;;5.40;99.90;;;;;;5039451;28;20123;-81
2022/02/01 08:44:31;;;;;;;34.70;19.25;;;5.50;99.90;;;;;;5039784;28;20490;-82
2022/02/01 08:46:58;;;;;;;33.20;18.33;;;5.50;99.90;;;;;;5056367;28;20469;-82
2022/02/01 08:49:26;;;;;;;33.78;19.42;;;5.50;99.90;;;;;;5039822;28;20025;-82
2022/02/01 08:52:02;;;;;;;34.17;20.55;;;5.50;99.90;;;;;;5073681;28;20086;-83
2022/02/01 08:54:29;;;;;;;36.10;19.80;;;5.60;99.90;;;;;;5042775;28;20079;-81
2022/02/01 08:59:41;;;;;;;32.63;20.38;;;5.60;99.90;;;;;;5052240;28;20044;-82
2022/02/01 09:02:08;;;;;;;39.78;22.05;;;5.60;99.90;;;;;;5053182;28;20033;-83
2022/02/01 09:04:34;;;;;;;39.75;20.90;;;5.60;99.90;;;;;;5019285;28;20042;-83
2022/02/01 09:07:01;;;;;;;34.25;20.05;;;5.60;99.90;;;;;;5053164;28;20025;-82
2022/02/01 09:09:28;;;;;;;35.15;20.35;;;5.70;99.90;;;;;;5019370;28;20036;-82
2022/02/01 09:11:54;;;;;;;36.75;21.38;;;5.70;99.90;;;;;;5035139;28;20051;-82
2022/02/01 09:14:20;;;;;;;31.80;19.00;;;5.70;99.90;;;;;;5035304;28;20033;-84
2022/02/01 09:16:47;;;;;;;32.75;20.75;;;5.70;99.90;;;;;;5056822;28;20031;-82
2022/02/01 09:19:14;;;;;;;35.20;19.58;;;5.70;99.90;;;;;;5022464;28;20086;-82
2022/02/01 09:21:40;;;;;;;30.70;18.65;;;5.80;99.90;;;;;;5055383;28;20091;-82
2022/02/01 09:24:07;;;;;;;29.33;18.65;;;5.70;99.90;;;;;;5033953;28;20084;-82
2022/02/01 09:26:33;;;;;;;30.30;18.83;;;5.80;99.90;;;;;;5052830;28;20033;-82
2022/02/01 09:28:59;;;;;;;34.38;18.88;;;5.80;99.90;;;;;;5054343;28;20048;-82
2022/02/01 09:31:25;;;;;;;32.38;18.50;;;5.80;99.90;;;;;;5054936;28;20036;-82
2022/02/01 09:33:50;;;;;;;26.15;16.77;;;5.80;99.90;;;;;;5038685;28;20409;-82
2022/02/01 09:36:17;;;;;;;28.15;17.65;;;5.80;99.90;;;;;;5022040;28;20028;-82
2022/02/01 09:38:43;;;;;;;27.38;17.30;;;5.90;99.90;;;;;;5038610;28;20063;-84
2022/02/01 09:41:09;;;;;;;28.73;17.17;;;5.90;99.90;;;;;;5055017;28;20032;-82
2022/02/01 09:43:35;;;;;;;29.67;17.13;;;5.90;99.90;;;;;;5038726;28;20029;-82
2022/02/01 09:46:01;;;;;;;27.42;17.10;;;5.90;99.90;;;;;;5055886;28;20067;-84
2022/02/01 09:48:28;;;;;;;24.55;15.93;;;6.00;99.90;;;;;;5075524;28;20032;-82
2022/02/01 09:50:54;;;;;;;25.70;15.82;;;5.90;99.90;;;;;;5075334;28;20042;-82
2022/02/01 09:53:20;;;;;;;23.33;15.50;;;6.00;99.90;;;;;;5041742;28;20111;-82
2022/02/01 09:55:47;;;;;;;23.75;14.95;;;6.10;99.90;;;;;;5041661;28;20024;-82
2022/02/01 09:58:14;;;;;;;24.10;14.82;;;6.00;99.90;;;;;;5075018;28;20043;-82
2022/02/01 10:00:46;;;;;;;23.05;13.90;;;6.10;99.90;;;;;;5092868;28;20035;-82
2022/02/01 10:03:17;;;;;;;22.70;14.55;;;6.10;99.90;;;;;;5058687;28;20380;-81
2022/02/01 10:05:44;;;;;;;20.30;13.15;;;6.10;99.90;;;;;;5093156;28;20020;-82
2022/02/01 10:08:13;;;;;;;19.27;13.27;;;6.20;99.90;;;;;;5074597;28;20116;-82
2022/02/01 10:10:39;;;;;;;19.42;11.65;;;6.20;99.90;;;;;;5074851;28;20088;-82
2022/02/01 10:13:17;;;;;;;19.00;11.45;;;6.20;99.90;;;;;;5058200;28;20024;-82
2022/02/01 10:15:56;;;;;;;17.13;10.48;;;6.30;99.90;;;;;;5093477;28;20058;-82
2022/02/01 10:18:32;;;;;;;17.35;10.85;;;6.40;99.90;;;;;;5075624;28;20032;-82
2022/02/01 10:21:27;;;;;;;20.60;11.30;;;6.30;99.90;;;;;;5074808;28;20038;-82
2022/02/01 10:24:02;;;;;;;19.42;11.50;;;6.40;99.90;;;;;;5059632;28;20044;-84
2022/02/01 10:26:28;;;;;;;18.58;10.43;;;6.40;99.90;;;;;;5080552;28;20073;-83
2022/02/01 10:31:57;;;;;;;17.52;10.05;;;6.50;99.90;;;;;;5087602;28;20040;-82
2022/02/01 10:36:54;;;;;;;15.68;9.30;;;6.60;99.90;;;;;;5096783;28;20029;-82
2022/02/01 10:39:24;;;;;;;18.40;9.68;;;6.60;99.90;;;;;;5078538;28;20111;-82
2022/02/01 10:42:04;;;;;;;16.05;9.10;;;6.60;99.90;;;;;;5096669;28;20028;-82
2022/02/01 10:44:57;;;;;;;15.93;8.40;;;6.60;99.90;;;;;;5096671;28;20078;-83
2022/02/01 10:47:42;;;;;;;17.38;9.48;;;6.70;99.90;;;;;;5075790;28;20361;-82
2022/02/01 10:50:12;;;;;;;17.95;10.07;;;6.70;99.90;;;;;;5090838;28;20035;-83
2022/02/01 10:52:45;;;;;;;15.63;9.50;;;6.70;99.90;;;;;;5077650;28;20439;-83
2022/02/01 10:55:12;;;;;;;17.42;9.45;;;6.80;99.90;;;;;;5058136;28;20021;-83
2022/02/01 10:57:38;;;;;;;13.32;7.97;;;6.80;99.90;;;;;;5058240;28;20078;-83
2022/02/01 11:00:07;;;;;;;21.05;10.52;;;6.90;99.90;;;;;;5075802;28;20020;-87
2022/02/01 11:02:37;;;;;;;19.27;9.60;;;6.80;99.90;;;;;;5075314;28;20481;-84
2022/02/01 11:05:04;;;;;;;17.63;9.32;;;6.90;99.90;;;;;;5058029;28;20030;-87
2022/02/01 11:07:29;;;;;;;15.75;8.40;;;6.90;99.90;;;;;;5058071;28;20111;-83
2022/02/01 11:09:55;;;;;;;15.63;8.93;;;7.00;99.90;;;;;;5041267;28;20161;-83
2022/02/01 11:12:32;;;;;;;17.25;9.30;;;7.00;99.90;;;;;;5075460;28;20453;-83
2022/02/01 11:14:57;;;;;;;14.27;8.20;;;7.00;99.90;;;;;;5057855;28;20029;-83
2022/02/01 11:17:23;;;;;;;12.57;8.00;;;7.00;99.90;;;;;;5041253;28;20035;-83
2022/02/01 11:19:54;;;;;;;14.40;8.10;;;7.10;99.90;;;;;;5041260;28;20033;-82
2022/02/01 11:22:34;;;;;;;13.98;8.05;;;7.10;99.90;;;;;;5040754;28;20460;-83
2022/02/01 11:25:18;;;;;;;15.88;8.38;;;7.20;99.90;;;;;;5057641;28;20032;-83
2022/02/01 11:28:20;;;;;;;12.57;7.90;;;7.20;99.90;;;;;;5057707;28;20021;-83
2022/02/01 11:30:49;;;;;;;12.85;7.22;;;7.20;99.90;;;;;;5074719;28;20052;-83
2022/02/01 11:33:15;;;;;;;;;;;7.30;99.90;;;;;;5041937;28;20017;-83
2022/02/01 11:35:42;;;;;;;12.45;7.35;;;7.30;99.90;;;;;;5074905;28;19962;-84
2022/02/01 11:38:16;;;;;;;10.13;6.10;;;7.30;99.90;;;;;;5041536;28;20028;-84
2022/02/01 11:40:48;;;;;;;10.27;6.10;;;7.30;99.90;;;;;;5095241;28;20030;-83
2022/02/01 11:43:16;;;;;;;11.50;7.00;;;7.40;99.90;;;;;;5077313;28;20028;-83
2022/02/01 11:45:54;;;;;;;9.38;5.50;;;7.40;99.90;;;;;;5061090;28;20055;-83
2022/02/01 11:48:23;;;;;;;11.15;7.15;;;7.50;99.90;;;;;;5096929;28;20056;-84
2022/02/01 11:50:58;;;;;;;8.32;5.35;;;7.50;99.90;;;;;;5078121;28;20459;-84
2022/02/01 11:53:38;;;;;;;11.05;5.93;;;7.50;99.90;;;;;;5095432;28;20113;-83
2022/02/01 11:56:05;;;;;;;13.77;7.00;;;7.60;99.90;;;;;;5076032;28;20028;-84
2022/02/01 11:58:45;;;;;;;12.27;6.85;;;7.60;99.90;;;;;;5078260;28;20027;-82
2022/02/01 12:01:31;;;;;;;11.18;6.22;;;7.70;99.90;;;;;;5076932;28;20028;-87
2022/02/01 12:04:04;;;;;;;10.07;5.38;;;7.70;99.90;;;;;;5077276;28;20051;-82
2022/02/01 12:07:07;;;;;;;11.73;6.93;;;7.70;99.90;;;;;;5075002;28;20036;-83
2022/02/01 12:09:33;;;;;;;12.60;6.47;;;7.80;99.90;;;;;;5091376;28;20035;-83
2022/02/01 12:12:00;;;;;;;13.52;6.68;;;7.80;99.90;;;;;;5074456;28;20112;-83
2022/02/01 12:14:27;;;;;;;11.05;6.90;;;7.90;99.90;;;;;;5058441;28;20028;-82
2022/02/01 12:16:55;;;;;;;11.57;6.68;;;7.90;99.90;;;;;;5082942;28;20020;-83
2022/02/01 12:19:23;;;;;;;11.18;6.80;;;7.90;99.90;;;;;;5074790;28;20032;-85
2022/02/01 12:22:27;;;;;;;12.10;7.78;;;7.90;99.90;;;;;;5075471;28;20028;-83
2022/02/01 12:25:04;;;;;;;11.98;7.22;;;8.00;99.90;;;;;;5094766;28;20093;-84
2022/02/01 12:27:38;;;;;;;20.52;9.88;;;8.00;99.90;;;;;;5076434;28;20016;-83
2022/02/01 12:30:09;;;;;;;15.63;8.63;;;8.00;99.90;;;;;;5097246;28;20052;-83
2022/02/01 12:32:35;;;;;;;21.85;11.50;;;8.10;99.90;;;;;;5076395;28;20031;-83
2022/02/01 12:35:02;;;;;;;19.88;10.65;;;8.10;99.90;;;;;;5076546;28;20055;-83
2022/02/01 12:37:29;;;;;;;26.10;12.63;;;8.10;99.90;;;;;;5059527;28;20040;-83
2022/02/01 12:40:10;;;;;;;30.92;11.32;;;8.20;99.90;;;;;;5076441;28;20073;-82
2022/02/01 12:42:46;;;;;;;33.08;12.52;;;8.20;99.90;;;;;;5076467;28;20082;-85
2022/02/01 12:48:04;;;;;;;28.88;12.27;;;8.30;99.90;;;;;;5078904;28;20074;-83
2022/02/01 12:50:31;;;;;;;22.77;9.50;;;8.30;99.90;;;;;;5059531;28;20024;-83
2022/02/01 12:53:02;;;;;;;30.42;12.48;;;8.30;99.90;;;;;;5059496;28;20059;-83
2022/02/01 12:55:28;;;;;;;31.55;10.68;;;8.40;99.90;;;;;;5075619;28;20024;-83
2022/02/01 12:57:54;;;;;;;29.55;9.75;;;8.50;99.90;;;;;;5077177;28;20028;-83
2022/02/01 13:00:23;;;;;;;23.55;9.77;;;8.50;99.90;;;;;;5075774;28;20090;-85
2022/02/01 13:02:55;;;;;;;29.17;9.98;;;8.50;99.90;;;;;;5094205;28;20024;-83
2022/02/01 13:05:21;;;;;;;29.65;10.25;;;8.50;99.90;;;;;;5094290;28;20349;-83
2022/02/01 13:08:24;;;;;;;22.27;7.68;;;8.60;99.90;;;;;;5059679;28;20031;-82
2022/02/01 13:16:22;;;;;;;30.42;7.63;;;8.60;99.90;;;;;;5077160;28;20039;-83
2022/02/01 13:21:24;;;;;;;21.83;7.18;;;8.70;99.90;;;;;;5093696;28;20400;-83
2022/02/01 13:23:56;;;;;;;23.83;7.63;;;8.70;99.90;;;;;;5075621;28;20024;-83
2022/02/01 13:26:28;;;;;;;24.38;7.28;;;8.70;99.90;;;;;;5063783;28;20088;-84
2022/02/01 13:29:01;;;;;;;17.27;6.82;;;8.80;99.90;;;;;;5061412;28;20040;-83
2022/02/01 13:31:30;;;;;;;19.38;7.00;;;8.80;99.90;;;;;;5067738;28;20020;-83
2022/02/01 13:34:03;;;;;;;25.65;7.05;;;8.80;99.90;;;;;;5082264;28;20097;-82
2022/02/01 13:36:30;;;;;;;23.33;6.80;;;8.80;99.90;;;;;;5047645;28;20029;-83
2022/02/01 13:39:03;;;;;;;26.55;7.25;;;8.90;99.90;;;;;;5054784;28;20040;-82
2022/02/01 13:41:33;;;;;;;24.27;6.78;;;8.80;99.90;;;;;;5073213;28;20113;-82
2022/02/01 13:44:00;;;;;;;19.80;6.95;;;8.90;99.90;;;;;;5055256;28;20025;-82
2022/02/01 13:46:32;;;;;;;17.63;6.38;;;8.90;99.90;;;;;;5055317;28;20078;-82
2022/02/01 13:49:04;;;;;;;18.73;6.88;;;8.90;99.90;;;;;;5075333;28;20095;-84
2022/02/01 13:51:31;;;;;;;17.58;5.60;;;8.90;99.90;;;;;;5075155;28;20059;-81
2022/02/01 13:54:02;;;;;;;17.92;5.78;;;9.00;99.90;;;;;;5093381;28;20025;-82
2022/02/01 13:56:30;;;;;;;17.30;5.40;;;9.10;99.90;;;;;;5074852;28;20028;-83
2022/02/01 13:59:08;;;;;;;18.60;5.22;;;9.00;99.90;;;;;;5092307;28;20032;-83
2022/02/01 14:01:40;;;;;;;21.95;6.03;;;9.10;99.90;;;;;;5075272;28;20055;-83
2022/02/01 14:04:18;;;;;;;17.33;4.93;;;9.10;99.90;;;;;;5085300;28;20104;-83
2022/02/01 14:06:55;;;;;;;15.63;4.85;;;9.10;99.90;;;;;;5072714;28;20414;-84
2022/02/01 14:09:40;;;;;;;15.40;4.50;;;9.10;99.90;;;;;;5056669;28;20029;-84
2022/02/01 14:12:34;;;;;;;17.88;5.18;;;9.20;99.90;;;;;;5041299;28;20029;-83
2022/02/01 14:28:32;;;;;;;19.40;4.90;;;9.20;99.90;;;;;;5075456;28;20028;-83
2022/02/01 14:33:58;;;;;;;13.38;4.60;;;9.20;99.90;;;;;;5093527;28;20051;-83
2022/02/01 14:36:28;;;;;;;17.08;4.47;;;9.20;99.90;;;;;;5088928;28;20123;-82
2022/02/01 14:44:41;;;;;;;18.75;4.28;;;9.20;99.90;;;;;;5087554;28;20093;-89
2022/02/01 14:47:14;;;;;;;17.23;4.63;;;9.20;99.90;;;;;;5075933;28;20024;-83
2022/02/01 14:49:41;;;;;;;9.13;3.50;;;9.30;99.90;;;;;;5075952;28;20028;-84
2022/02/01 14:52:07;;;;;;;16.45;4.57;;;9.30;99.90;;;;;;5092878;28;20040;-82
2022/02/01 14:54:43;;;;;;;18.17;3.80;;;9.30;99.90;;;;;;5074409;28;20099;-84